Terminal Aerodrome Forecast
Issued by NWS Billings, MT

Home | Current Version | Previous Version | Graphics & Text | Print | Product List | Glossary On
Versions: 1 2 3 4 5 6 7 8 9 10 11 12 13 14 15 16 17 18 19 20 21 22 23 24 25 26 27 28
000
FTUS45 KBYZ 071121
TAFMLS
TAF
KMLS 071121Z 0712/0812 29005KT P6SM SCT110
     FM071330 31013KT P6SM VCTS BKN080CB
     FM071600 34017G25KT P6SM SCT100
     FM080200 30007KT P6SM FEW120=

USA.gov is the U.S. government's official web portal to all federal, state and local government web resources and services.